sensor_id;sensor_type;location;lat;lon;timestamp;P1;P2;P0
49644;PMS5003;36494;50.730;-1.932;2024-01-16T00:00:19;10;10;
49644;PMS5003;36494;50.730;-1.932;2024-01-16T00:02:44;15;15;
49644;PMS5003;36494;50.730;-1.932;2024-01-16T00:05:10;19;19;
49644;PMS5003;36494;50.730;-1.932;2024-01-16T00:07:37;22;19;
49644;PMS5003;36494;50.730;-1.932;2024-01-16T00:10:01;21;19;
49644;PMS5003;36494;50.730;-1.932;2024-01-16T00:12:27;25;24;
49644;PMS5003;36494;50.730;-1.932;2024-01-16T00:14:52;24;23;
49644;PMS5003;36494;50.730;-1.932;2024-01-16T00:17:17;21;19;
49644;PMS5003;36494;50.730;-1.932;2024-01-16T00:19:44;19;19;
49644;PMS5003;36494;50.730;-1.932;2024-01-16T00:22:08;21;21;
49644;PMS5003;36494;50.730;-1.932;2024-01-16T00:24:33;21;19;
49644;PMS5003;36494;50.730;-1.932;2024-01-16T00:26:59;21;19;
49644;PMS5003;36494;50.730;-1.932;2024-01-16T00:29:24;21;21;
49644;PMS5003;36494;50.730;-1.932;2024-01-16T00:31:50;24;22;
49644;PMS5003;36494;50.730;-1.932;2024-01-16T00:34:15;26;23;
49644;PMS5003;36494;50.730;-1.932;2024-01-16T00:36:41;21;19;
49644;PMS5003;36494;50.730;-1.932;2024-01-16T00:39:06;25;23;
49644;PMS5003;36494;50.730;-1.932;2024-01-16T00:41:31;38;32;
49644;PMS5003;36494;50.730;-1.932;2024-01-16T00:43:57;32;32;
49644;PMS5003;36494;50.730;-1.932;2024-01-16T00:46:22;29;27;
49644;PMS5003;36494;50.730;-1.932;2024-01-16T00:48:47;34;33;
49644;PMS5003;36494;50.730;-1.932;2024-01-16T00:51:13;31;29;
49644;PMS5003;36494;50.730;-1.932;2024-01-16T00:53:40;38;36;
49644;PMS5003;36494;50.730;-1.932;2024-01-16T00:56:04;36;35;
49644;PMS5003;36494;50.730;-1.932;2024-01-16T00:58:29;37;35;
49644;PMS5003;36494;50.730;-1.932;2024-01-16T01:00:54;35;33;
49644;PMS5003;36494;50.730;-1.932;2024-01-16T01:03:20;36;33;
49644;PMS5003;36494;50.730;-1.932;2024-01-16T01:05:46;32;31;
49644;PMS5003;36494;50.730;-1.932;2024-01-16T01:08:11;35;34;
49644;PMS5003;36494;50.730;-1.932;2024-01-16T01:10:36;41;37;
49644;PMS5003;36494;50.730;-1.932;2024-01-16T01:13:01;39;38;
49644;PMS5003;36494;50.730;-1.932;2024-01-16T01:15:26;36;35;
49644;PMS5003;36494;50.730;-1.932;2024-01-16T01:17:52;33;31;
49644;PMS5003;36494;50.730;-1.932;2024-01-16T01:20:18;29;27;
49644;PMS5003;36494;50.730;-1.932;2024-01-16T01:22:43;25;24;
49644;PMS5003;36494;50.730;-1.932;2024-01-16T01:25:08;27;27;
49644;PMS5003;36494;50.730;-1.932;2024-01-16T01:27:34;30;28;
49644;PMS5003;36494;50.730;-1.932;2024-01-16T01:29:59;33;32;
49644;PMS5003;36494;50.730;-1.932;2024-01-16T01:32:25;29;27;
49644;PMS5003;36494;50.730;-1.932;2024-01-16T01:34:50;34;33;
49644;PMS5003;36494;50.730;-1.932;2024-01-16T01:37:15;31;30;
49644;PMS5003;36494;50.730;-1.932;2024-01-16T01:39:41;28;28;
49644;PMS5003;36494;50.730;-1.932;2024-01-16T01:42:07;30;29;
49644;PMS5003;36494;50.730;-1.932;2024-01-16T01:44:33;29;28;
49644;PMS5003;36494;50.730;-1.932;2024-01-16T01:46:57;36;35;
49644;PMS5003;36494;50.730;-1.932;2024-01-16T01:49:23;29;26;
49644;PMS5003;36494;50.730;-1.932;2024-01-16T01:51:48;24;24;
49644;PMS5003;36494;50.730;-1.932;2024-01-16T01:54:14;23;23;
49644;PMS5003;36494;50.730;-1.932;2024-01-16T01:56:44;22;21;
49644;PMS5003;36494;50.730;-1.932;2024-01-16T01:59:05;23;23;
49644;PMS5003;36494;50.730;-1.932;2024-01-16T02:01:30;34;30;
49644;PMS5003;36494;50.730;-1.932;2024-01-16T02:03:55;32;30;
49644;PMS5003;36494;50.730;-1.932;2024-01-16T02:06:21;32;30;
49644;PMS5003;36494;50.730;-1.932;2024-01-16T02:08:46;29;28;
49644;PMS5003;36494;50.730;-1.932;2024-01-16T02:11:12;22;21;
49644;PMS5003;36494;50.730;-1.932;2024-01-16T02:13:37;24;22;
49644;PMS5003;36494;50.730;-1.932;2024-01-16T02:16:03;26;24;
49644;PMS5003;36494;50.730;-1.932;2024-01-16T02:18:28;19;19;
49644;PMS5003;36494;50.730;-1.932;2024-01-16T02:20:54;22;20;
49644;PMS5003;36494;50.730;-1.932;2024-01-16T02:23:21;21;17;
49644;PMS5003;36494;50.730;-1.932;2024-01-16T02:25:45;19;17;
49644;PMS5003;36494;50.730;-1.932;2024-01-16T02:28:10;21;20;
49644;PMS5003;36494;50.730;-1.932;2024-01-16T02:30:36;19;19;
49644;PMS5003;36494;50.730;-1.932;2024-01-16T02:33:01;16;16;
49644;PMS5003;36494;50.730;-1.932;2024-01-16T02:35:27;19;16;
49644;PMS5003;36494;50.730;-1.932;2024-01-16T02:37:52;15;15;
49644;PMS5003;36494;50.730;-1.932;2024-01-16T02:40:18;15;15;
49644;PMS5003;36494;50.730;-1.932;2024-01-16T02:42:44;15;14;
49644;PMS5003;36494;50.730;-1.932;2024-01-16T02:45:09;14;13;
49644;PMS5003;36494;50.730;-1.932;2024-01-16T02:47:34;13;13;
49644;PMS5003;36494;50.730;-1.932;2024-01-16T02:50:00;10;10;
49644;PMS5003;36494;50.730;-1.932;2024-01-16T02:52:26;13;13;
49644;PMS5003;36494;50.730;-1.932;2024-01-16T02:54:53;16;16;
49644;PMS5003;36494;50.730;-1.932;2024-01-16T02:57:17;15;14;
49644;PMS5003;36494;50.730;-1.932;2024-01-16T02:59:43;19;17;
49644;PMS5003;36494;50.730;-1.932;2024-01-16T03:02:07;16;16;
49644;PMS5003;36494;50.730;-1.932;2024-01-16T03:04:33;15;15;
49644;PMS5003;36494;50.730;-1.932;2024-01-16T03:06:58;13;13;
49644;PMS5003;36494;50.730;-1.932;2024-01-16T03:09:24;17;15;
49644;PMS5003;36494;50.730;-1.932;2024-01-16T03:11:50;15;15;
49644;PMS5003;36494;50.730;-1.932;2024-01-16T03:14:15;15;14;
49644;PMS5003;36494;50.730;-1.932;2024-01-16T03:16:41;16;14;
49644;PMS5003;36494;50.730;-1.932;2024-01-16T03:19:10;19;17;
49644;PMS5003;36494;50.730;-1.932;2024-01-16T03:21:32;15;15;
49644;PMS5003;36494;50.730;-1.932;2024-01-16T03:23:57;16;15;
49644;PMS5003;36494;50.730;-1.932;2024-01-16T03:26:22;19;16;
49644;PMS5003;36494;50.730;-1.932;2024-01-16T03:28:48;16;16;
49644;PMS5003;36494;50.730;-1.932;2024-01-16T03:31:14;11;11;
49644;PMS5003;36494;50.730;-1.932;2024-01-16T03:33:39;18;18;
49644;PMS5003;36494;50.730;-1.932;2024-01-16T03:36:05;14;14;
49644;PMS5003;36494;50.730;-1.932;2024-01-16T03:38:30;16;16;
49644;PMS5003;36494;50.730;-1.932;2024-01-16T03:40:55;14;14;
49644;PMS5003;36494;50.730;-1.932;2024-01-16T03:43:21;15;13;
49644;PMS5003;36494;50.730;-1.932;2024-01-16T03:45:47;14;13;
49644;PMS5003;36494;50.730;-1.932;2024-01-16T03:48:12;13;13;
49644;PMS5003;36494;50.730;-1.932;2024-01-16T03:50:38;12;12;
49644;PMS5003;36494;50.730;-1.932;2024-01-16T03:53:04;10;10;
49644;PMS5003;36494;50.730;-1.932;2024-01-16T03:55:31;12;12;
49644;PMS5003;36494;50.730;-1.932;2024-01-16T03:57:54;21;19;
49644;PMS5003;36494;50.730;-1.932;2024-01-16T04:00:20;19;16;
49644;PMS5003;36494;50.730;-1.932;2024-01-16T04:02:45;14;14;
49644;PMS5003;36494;50.730;-1.932;2024-01-16T04:05:11;14;14;
49644;PMS5003;36494;50.730;-1.932;2024-01-16T04:07:38;13;10;
49644;PMS5003;36494;50.730;-1.932;2024-01-16T04:10:01;12;12;
49644;PMS5003;36494;50.730;-1.932;2024-01-16T04:12:27;12;12;
49644;PMS5003;36494;50.730;-1.932;2024-01-16T04:14:52;14;14;
49644;PMS5003;36494;50.730;-1.932;2024-01-16T04:17:18;13;13;
49644;PMS5003;36494;50.730;-1.932;2024-01-16T04:19:43;15;14;
49644;PMS5003;36494;50.730;-1.932;2024-01-16T04:22:09;12;12;
49644;PMS5003;36494;50.730;-1.932;2024-01-16T04:24:34;15;15;
49644;PMS5003;36494;50.730;-1.932;2024-01-16T04:27:00;21;21;
49644;PMS5003;36494;50.730;-1.932;2024-01-16T04:29:26;21;21;
49644;PMS5003;36494;50.730;-1.932;2024-01-16T04:31:51;25;24;
49644;PMS5003;36494;50.730;-1.932;2024-01-16T04:34:17;14;14;
49644;PMS5003;36494;50.730;-1.932;2024-01-16T04:36:42;16;16;
49644;PMS5003;36494;50.730;-1.932;2024-01-16T04:39:08;20;20;
49644;PMS5003;36494;50.730;-1.932;2024-01-16T04:41:33;22;22;
49644;PMS5003;36494;50.730;-1.932;2024-01-16T04:44:02;26;26;
49644;PMS5003;36494;50.730;-1.932;2024-01-16T04:46:24;30;29;
49644;PMS5003;36494;50.730;-1.932;2024-01-16T04:48:50;26;26;
49644;PMS5003;36494;50.730;-1.932;2024-01-16T04:51:15;20;19;
49644;PMS5003;36494;50.730;-1.932;2024-01-16T04:53:41;20;19;
49644;PMS5003;36494;50.730;-1.932;2024-01-16T04:56:07;19;19;
49644;PMS5003;36494;50.730;-1.932;2024-01-16T04:58:32;9;8;
49644;PMS5003;36494;50.730;-1.932;2024-01-16T05:00:58;16;16;
49644;PMS5003;36494;50.730;-1.932;2024-01-16T05:03:23;10;10;
49644;PMS5003;36494;50.730;-1.932;2024-01-16T05:05:49;16;14;
49644;PMS5003;36494;50.730;-1.932;2024-01-16T05:08:16;18;18;
49644;PMS5003;36494;50.730;-1.932;2024-01-16T05:10:40;8;8;
49644;PMS5003;36494;50.730;-1.932;2024-01-16T05:13:05;6;6;
49644;PMS5003;36494;50.730;-1.932;2024-01-16T05:15:31;25;22;
49644;PMS5003;36494;50.730;-1.932;2024-01-16T05:17:56;37;37;
49644;PMS5003;36494;50.730;-1.932;2024-01-16T05:20:21;26;23;
49644;PMS5003;36494;50.730;-1.932;2024-01-16T05:22:47;33;30;
49644;PMS5003;36494;50.730;-1.932;2024-01-16T05:25:12;21;21;
49644;PMS5003;36494;50.730;-1.932;2024-01-16T05:27:38;24;24;
49644;PMS5003;36494;50.730;-1.932;2024-01-16T05:30:03;33;32;
49644;PMS5003;36494;50.730;-1.932;2024-01-16T05:32:31;25;25;
49644;PMS5003;36494;50.730;-1.932;2024-01-16T05:34:53;37;33;
49644;PMS5003;36494;50.730;-1.932;2024-01-16T05:37:18;31;30;
49644;PMS5003;36494;50.730;-1.932;2024-01-16T05:39:44;24;24;
49644;PMS5003;36494;50.730;-1.932;2024-01-16T05:42:10;30;28;
49644;PMS5003;36494;50.730;-1.932;2024-01-16T05:44:37;31;28;
49644;PMS5003;36494;50.730;-1.932;2024-01-16T05:47:01;25;22;
49644;PMS5003;36494;50.730;-1.932;2024-01-16T05:49:26;21;21;
49644;PMS5003;36494;50.730;-1.932;2024-01-16T05:51:51;25;22;
49644;PMS5003;36494;50.730;-1.932;2024-01-16T05:54:17;28;27;
49644;PMS5003;36494;50.730;-1.932;2024-01-16T05:56:42;25;24;
49644;PMS5003;36494;50.730;-1.932;2024-01-16T05:59:07;25;25;
49644;PMS5003;36494;50.730;-1.932;2024-01-16T06:01:33;28;27;
49644;PMS5003;36494;50.730;-1.932;2024-01-16T06:03:58;33;32;
49644;PMS5003;36494;50.730;-1.932;2024-01-16T06:06:23;33;31;
49644;PMS5003;36494;50.730;-1.932;2024-01-16T06:08:49;33;32;
49644;PMS5003;36494;50.730;-1.932;2024-01-16T06:11:15;30;30;
49644;PMS5003;36494;50.730;-1.932;2024-01-16T06:13:40;27;24;
49644;PMS5003;36494;50.730;-1.932;2024-01-16T06:16:05;32;31;
49644;PMS5003;36494;50.730;-1.932;2024-01-16T06:18:31;31;29;
49644;PMS5003;36494;50.730;-1.932;2024-01-16T06:20:56;30;30;
49644;PMS5003;36494;50.730;-1.932;2024-01-16T06:23:22;26;25;
49644;PMS5003;36494;50.730;-1.932;2024-01-16T06:25:47;23;23;
49644;PMS5003;36494;50.730;-1.932;2024-01-16T06:28:12;33;31;
49644;PMS5003;36494;50.730;-1.932;2024-01-16T06:30:37;25;24;
49644;PMS5003;36494;50.730;-1.932;2024-01-16T06:33:06;25;24;
49644;PMS5003;36494;50.730;-1.932;2024-01-16T06:35:28;25;24;
49644;PMS5003;36494;50.730;-1.932;2024-01-16T06:37:54;38;37;
49644;PMS5003;36494;50.730;-1.932;2024-01-16T06:40:19;55;53;
49644;PMS5003;36494;50.730;-1.932;2024-01-16T06:42:45;31;30;
49644;PMS5003;36494;50.730;-1.932;2024-01-16T06:45:13;43;42;
49644;PMS5003;36494;50.730;-1.932;2024-01-16T06:47:35;60;58;
49644;PMS5003;36494;50.730;-1.932;2024-01-16T06:50:00;32;30;
49644;PMS5003;36494;50.730;-1.932;2024-01-16T06:52:25;47;46;
49644;PMS5003;36494;50.730;-1.932;2024-01-16T06:54:51;53;52;
49644;PMS5003;36494;50.730;-1.932;2024-01-16T06:57:16;43;43;
49644;PMS5003;36494;50.730;-1.932;2024-01-16T06:59:42;30;26;
49644;PMS5003;36494;50.730;-1.932;2024-01-16T07:02:07;31;30;
49644;PMS5003;36494;50.730;-1.932;2024-01-16T07:04:33;25;24;
49644;PMS5003;36494;50.730;-1.932;2024-01-16T07:06:58;25;24;
49644;PMS5003;36494;50.730;-1.932;2024-01-16T07:09:24;29;27;
49644;PMS5003;36494;50.730;-1.932;2024-01-16T07:11:49;26;25;
49644;PMS5003;36494;50.730;-1.932;2024-01-16T07:14:15;24;21;
49644;PMS5003;36494;50.730;-1.932;2024-01-16T07:16:40;31;30;
49644;PMS5003;36494;50.730;-1.932;2024-01-16T07:19:06;24;21;
49644;PMS5003;36494;50.730;-1.932;2024-01-16T07:21:31;32;31;
49644;PMS5003;36494;50.730;-1.932;2024-01-16T07:23:57;19;18;
49644;PMS5003;36494;50.730;-1.932;2024-01-16T07:26:23;27;25;
49644;PMS5003;36494;50.730;-1.932;2024-01-16T07:28:48;19;17;
49644;PMS5003;36494;50.730;-1.932;2024-01-16T07:31:13;26;25;
49644;PMS5003;36494;50.730;-1.932;2024-01-16T07:33:39;21;19;
49644;PMS5003;36494;50.730;-1.932;2024-01-16T07:36:05;21;21;
49644;PMS5003;36494;50.730;-1.932;2024-01-16T07:38:30;21;21;
49644;PMS5003;36494;50.730;-1.932;2024-01-16T07:40:56;21;20;
49644;PMS5003;36494;50.730;-1.932;2024-01-16T07:43:21;29;29;
49644;PMS5003;36494;50.730;-1.932;2024-01-16T07:45:49;35;31;
49644;PMS5003;36494;50.730;-1.932;2024-01-16T07:48:11;26;25;
49644;PMS5003;36494;50.730;-1.932;2024-01-16T07:50:37;21;21;
49644;PMS5003;36494;50.730;-1.932;2024-01-16T07:53:02;26;25;
49644;PMS5003;36494;50.730;-1.932;2024-01-16T07:55:28;26;24;
49644;PMS5003;36494;50.730;-1.932;2024-01-16T07:57:56;34;31;
49644;PMS5003;36494;50.730;-1.932;2024-01-16T08:00:19;24;23;
49644;PMS5003;36494;50.730;-1.932;2024-01-16T08:02:44;21;20;
49644;PMS5003;36494;50.730;-1.932;2024-01-16T08:05:10;18;17;
49644;PMS5003;36494;50.730;-1.932;2024-01-16T08:07:35;15;15;
49644;PMS5003;36494;50.730;-1.932;2024-01-16T08:10:00;18;17;
49644;PMS5003;36494;50.730;-1.932;2024-01-16T08:12:26;14;14;
49644;PMS5003;36494;50.730;-1.932;2024-01-16T08:14:51;13;13;
49644;PMS5003;36494;50.730;-1.932;2024-01-16T08:17:17;14;13;
49644;PMS5003;36494;50.730;-1.932;2024-01-16T08:19:42;14;13;
49644;PMS5003;36494;50.730;-1.932;2024-01-16T08:22:07;23;21;
49644;PMS5003;36494;50.730;-1.932;2024-01-16T08:24:33;19;18;
49644;PMS5003;36494;50.730;-1.932;2024-01-16T08:26:58;23;21;
49644;PMS5003;36494;50.730;-1.932;2024-01-16T08:29:23;30;27;
49644;PMS5003;36494;50.730;-1.932;2024-01-16T08:31:48;25;25;
49644;PMS5003;36494;50.730;-1.932;2024-01-16T08:34:14;27;26;
49644;PMS5003;36494;50.730;-1.932;2024-01-16T08:36:39;26;25;
49644;PMS5003;36494;50.730;-1.932;2024-01-16T08:39:05;25;24;
49644;PMS5003;36494;50.730;-1.932;2024-01-16T08:41:30;27;25;
49644;PMS5003;36494;50.730;-1.932;2024-01-16T08:43:56;24;24;
49644;PMS5003;36494;50.730;-1.932;2024-01-16T08:46:21;31;29;
49644;PMS5003;36494;50.730;-1.932;2024-01-16T08:48:47;26;26;
49644;PMS5003;36494;50.730;-1.932;2024-01-16T08:51:12;31;30;
49644;PMS5003;36494;50.730;-1.932;2024-01-16T08:53:37;31;30;
49644;PMS5003;36494;50.730;-1.932;2024-01-16T08:56:02;27;26;
49644;PMS5003;36494;50.730;-1.932;2024-01-16T08:58:31;25;25;
49644;PMS5003;36494;50.730;-1.932;2024-01-16T09:00:53;27;26;
49644;PMS5003;36494;50.730;-1.932;2024-01-16T09:03:18;27;23;
49644;PMS5003;36494;50.730;-1.932;2024-01-16T09:05:43;25;25;
49644;PMS5003;36494;50.730;-1.932;2024-01-16T09:08:09;23;22;
49644;PMS5003;36494;50.730;-1.932;2024-01-16T09:10:35;32;29;
49644;PMS5003;36494;50.730;-1.932;2024-01-16T09:12:59;24;24;
49644;PMS5003;36494;50.730;-1.932;2024-01-16T09:15:25;23;22;
49644;PMS5003;36494;50.730;-1.932;2024-01-16T09:17:50;21;21;
49644;PMS5003;36494;50.730;-1.932;2024-01-16T09:20:16;28;27;
49644;PMS5003;36494;50.730;-1.932;2024-01-16T09:22:41;38;37;
49644;PMS5003;36494;50.730;-1.932;2024-01-16T09:25:06;38;35;
49644;PMS5003;36494;50.730;-1.932;2024-01-16T09:27:31;33;32;
49644;PMS5003;36494;50.730;-1.932;2024-01-16T09:29:56;27;26;
49644;PMS5003;36494;50.730;-1.932;2024-01-16T09:32:22;26;24;
49644;PMS5003;36494;50.730;-1.932;2024-01-16T09:34:51;22;22;
49644;PMS5003;36494;50.730;-1.932;2024-01-16T09:37:13;30;28;
49644;PMS5003;36494;50.730;-1.932;2024-01-16T09:39:38;28;27;
49644;PMS5003;36494;50.730;-1.932;2024-01-16T09:42:03;26;25;
49644;PMS5003;36494;50.730;-1.932;2024-01-16T09:44:29;27;24;
49644;PMS5003;36494;50.730;-1.932;2024-01-16T09:46:55;23;23;
49644;PMS5003;36494;50.730;-1.932;2024-01-16T09:49:19;22;21;
49644;PMS5003;36494;50.730;-1.932;2024-01-16T09:51:45;21;20;
49644;PMS5003;36494;50.730;-1.932;2024-01-16T09:54:10;22;21;
49644;PMS5003;36494;50.730;-1.932;2024-01-16T09:56:37;22;20;
49644;PMS5003;36494;50.730;-1.932;2024-01-16T09:59:02;18;18;
49644;PMS5003;36494;50.730;-1.932;2024-01-16T10:01:26;22;21;
49644;PMS5003;36494;50.730;-1.932;2024-01-16T10:03:52;21;21;
49644;PMS5003;36494;50.730;-1.932;2024-01-16T10:06:17;19;19;
49644;PMS5003;36494;50.730;-1.932;2024-01-16T10:08:42;30;30;
49644;PMS5003;36494;50.730;-1.932;2024-01-16T10:11:10;32;31;
49644;PMS5003;36494;50.730;-1.932;2024-01-16T10:13:33;32;31;
49644;PMS5003;36494;50.730;-1.932;2024-01-16T10:15:59;37;33;
49644;PMS5003;36494;50.730;-1.932;2024-01-16T10:18:25;34;33;
49644;PMS5003;36494;50.730;-1.932;2024-01-16T10:20:50;37;35;
49644;PMS5003;36494;50.730;-1.932;2024-01-16T10:25:41;41;39;
49644;PMS5003;36494;50.730;-1.932;2024-01-16T10:28:07;33;32;
49644;PMS5003;36494;50.730;-1.932;2024-01-16T10:30:32;33;33;
49644;PMS5003;36494;50.730;-1.932;2024-01-16T10:33:11;39;38;
49644;PMS5003;36494;50.730;-1.932;2024-01-16T10:35:23;35;34;
49644;PMS5003;36494;50.730;-1.932;2024-01-16T10:37:49;34;33;
49644;PMS5003;36494;50.730;-1.932;2024-01-16T10:40:15;22;21;
49644;PMS5003;36494;50.730;-1.932;2024-01-16T10:42:40;22;21;
49644;PMS5003;36494;50.730;-1.932;2024-01-16T10:45:06;25;25;
49644;PMS5003;36494;50.730;-1.932;2024-01-16T10:47:31;21;20;
49644;PMS5003;36494;50.730;-1.932;2024-01-16T10:49:56;18;17;
49644;PMS5003;36494;50.730;-1.932;2024-01-16T10:52:22;17;17;
49644;PMS5003;36494;50.730;-1.932;2024-01-16T10:54:47;18;18;
49644;PMS5003;36494;50.730;-1.932;2024-01-16T10:57:13;15;14;
49644;PMS5003;36494;50.730;-1.932;2024-01-16T10:59:39;15;15;
49644;PMS5003;36494;50.730;-1.932;2024-01-16T11:02:04;19;16;
49644;PMS5003;36494;50.730;-1.932;2024-01-16T11:04:29;19;17;
49644;PMS5003;36494;50.730;-1.932;2024-01-16T11:06:55;16;16;
49644;PMS5003;36494;50.730;-1.932;2024-01-16T11:09:20;16;16;
49644;PMS5003;36494;50.730;-1.932;2024-01-16T11:11:46;22;17;
49644;PMS5003;36494;50.730;-1.932;2024-01-16T11:14:11;16;16;
49644;PMS5003;36494;50.730;-1.932;2024-01-16T11:16:37;12;12;
49644;PMS5003;36494;50.730;-1.932;2024-01-16T11:19:02;17;16;
49644;PMS5003;36494;50.730;-1.932;2024-01-16T11:21:28;19;18;
49644;PMS5003;36494;50.730;-1.932;2024-01-16T11:23:53;15;14;
49644;PMS5003;36494;50.730;-1.932;2024-01-16T11:26:25;17;17;
49644;PMS5003;36494;50.730;-1.932;2024-01-16T11:28:44;16;16;
49644;PMS5003;36494;50.730;-1.932;2024-01-16T11:33:41;17;17;
49644;PMS5003;36494;50.730;-1.932;2024-01-16T11:36:01;18;17;
49644;PMS5003;36494;50.730;-1.932;2024-01-16T11:38:26;15;15;
49644;PMS5003;36494;50.730;-1.932;2024-01-16T11:40:52;16;15;
49644;PMS5003;36494;50.730;-1.932;2024-01-16T11:45:48;10;8;
49644;PMS5003;36494;50.730;-1.932;2024-01-16T11:48:08;5;4;
49644;PMS5003;36494;50.730;-1.932;2024-01-16T11:50:34;5;5;
49644;PMS5003;36494;50.730;-1.932;2024-01-16T11:52:59;5;5;
49644;PMS5003;36494;50.730;-1.932;2024-01-16T11:55:25;5;4;
49644;PMS5003;36494;50.730;-1.932;2024-01-16T11:57:53;3;3;
49644;PMS5003;36494;50.730;-1.932;2024-01-16T12:00:18;5;5;
49644;PMS5003;36494;50.730;-1.932;2024-01-16T12:02:46;4;3;
49644;PMS5003;36494;50.730;-1.932;2024-01-16T12:05:07;3;3;
49644;PMS5003;36494;50.730;-1.932;2024-01-16T12:09:58;6;6;
49644;PMS5003;36494;50.730;-1.932;2024-01-16T12:12:24;3;3;
49644;PMS5003;36494;50.730;-1.932;2024-01-16T12:14:51;3;3;
49644;PMS5003;36494;50.730;-1.932;2024-01-16T12:17:14;4;3;
49644;PMS5003;36494;50.730;-1.932;2024-01-16T12:19:41;2;2;
49644;PMS5003;36494;50.730;-1.932;2024-01-16T12:22:04;8;8;
49644;PMS5003;36494;50.730;-1.932;2024-01-16T12:24:30;9;9;
49644;PMS5003;36494;50.730;-1.932;2024-01-16T12:26:57;5;5;
49644;PMS5003;36494;50.730;-1.932;2024-01-16T12:29:21;8;7;
49644;PMS5003;36494;50.730;-1.932;2024-01-16T12:31:51;15;13;
49644;PMS5003;36494;50.730;-1.932;2024-01-16T12:34:11;20;17;
49644;PMS5003;36494;50.730;-1.932;2024-01-16T12:36:37;15;14;
49644;PMS5003;36494;50.730;-1.932;2024-01-16T12:39:02;14;13;
49644;PMS5003;36494;50.730;-1.932;2024-01-16T12:41:28;23;22;
49644;PMS5003;36494;50.730;-1.932;2024-01-16T12:43:55;19;17;
49644;PMS5003;36494;50.730;-1.932;2024-01-16T12:46:18;3;3;
49644;PMS5003;36494;50.730;-1.932;2024-01-16T12:48:44;5;4;
49644;PMS5003;36494;50.730;-1.932;2024-01-16T12:51:09;14;13;
49644;PMS5003;36494;50.730;-1.932;2024-01-16T12:53:34;128;117;
49644;PMS5003;36494;50.730;-1.932;2024-01-16T12:56:01;85;73;
49644;PMS5003;36494;50.730;-1.932;2024-01-16T12:58:31;42;39;
49644;PMS5003;36494;50.730;-1.932;2024-01-16T13:00:51;3;3;
49644;PMS5003;36494;50.730;-1.932;2024-01-16T13:03:17;3;3;
49644;PMS5003;36494;50.730;-1.932;2024-01-16T13:05:42;44;42;
49644;PMS5003;36494;50.730;-1.932;2024-01-16T13:08:07;26;24;
49644;PMS5003;36494;50.730;-1.932;2024-01-16T13:10:32;20;19;
49644;PMS5003;36494;50.730;-1.932;2024-01-16T13:15:23;19;19;
49644;PMS5003;36494;50.730;-1.932;2024-01-16T13:17:49;29;29;
49644;PMS5003;36494;50.730;-1.932;2024-01-16T13:20:14;14;14;
49644;PMS5003;36494;50.730;-1.932;2024-01-16T13:22:40;1;1;
49644;PMS5003;36494;50.730;-1.932;2024-01-16T13:25:05;2;2;
49644;PMS5003;36494;50.730;-1.932;2024-01-16T13:27:30;1;1;
49644;PMS5003;36494;50.730;-1.932;2024-01-16T13:29:56;0;0;
49644;PMS5003;36494;50.730;-1.932;2024-01-16T13:32:24;3;2;
49644;PMS5003;36494;50.730;-1.932;2024-01-16T13:34:46;1;0;
49644;PMS5003;36494;50.730;-1.932;2024-01-16T13:37:12;2;1;
49644;PMS5003;36494;50.730;-1.932;2024-01-16T13:39:37;1;1;
49644;PMS5003;36494;50.730;-1.932;2024-01-16T13:42:03;2;1;
49644;PMS5003;36494;50.730;-1.932;2024-01-16T13:44:28;3;3;
49644;PMS5003;36494;50.730;-1.932;2024-01-16T13:46:54;2;2;
49644;PMS5003;36494;50.730;-1.932;2024-01-16T13:49:19;0;0;
49644;PMS5003;36494;50.730;-1.932;2024-01-16T13:51:44;2;2;
49644;PMS5003;36494;50.730;-1.932;2024-01-16T13:54:10;1;1;
49644;PMS5003;36494;50.730;-1.932;2024-01-16T13:56:35;1;1;
49644;PMS5003;36494;50.730;-1.932;2024-01-16T13:59:02;2;2;
49644;PMS5003;36494;50.730;-1.932;2024-01-16T14:01:27;1;1;
49644;PMS5003;36494;50.730;-1.932;2024-01-16T14:03:52;1;1;
49644;PMS5003;36494;50.730;-1.932;2024-01-16T14:06:17;3;2;
49644;PMS5003;36494;50.730;-1.932;2024-01-16T14:08:42;0;0;
49644;PMS5003;36494;50.730;-1.932;2024-01-16T14:11:08;0;0;
49644;PMS5003;36494;50.730;-1.932;2024-01-16T14:13:33;1;0;
49644;PMS5003;36494;50.730;-1.932;2024-01-16T14:15:59;1;1;
49644;PMS5003;36494;50.730;-1.932;2024-01-16T14:18:24;0;0;
49644;PMS5003;36494;50.730;-1.932;2024-01-16T14:20:50;0;0;
49644;PMS5003;36494;50.730;-1.932;2024-01-16T14:23:17;2;2;
49644;PMS5003;36494;50.730;-1.932;2024-01-16T14:25:40;1;1;
49644;PMS5003;36494;50.730;-1.932;2024-01-16T14:28:06;1;1;
49644;PMS5003;36494;50.730;-1.932;2024-01-16T14:30:32;3;3;
49644;PMS5003;36494;50.730;-1.932;2024-01-16T14:32:56;2;2;
49644;PMS5003;36494;50.730;-1.932;2024-01-16T14:35:24;4;4;
49644;PMS5003;36494;50.730;-1.932;2024-01-16T14:37:47;4;4;
49644;PMS5003;36494;50.730;-1.932;2024-01-16T14:40:13;3;3;
49644;PMS5003;36494;50.730;-1.932;2024-01-16T14:42:38;5;3;
49644;PMS5003;36494;50.730;-1.932;2024-01-16T14:45:04;3;3;
49644;PMS5003;36494;50.730;-1.932;2024-01-16T14:47:29;6;6;
49644;PMS5003;36494;50.730;-1.932;2024-01-16T14:49:54;4;3;
49644;PMS5003;36494;50.730;-1.932;2024-01-16T14:52:19;9;8;
49644;PMS5003;36494;50.730;-1.932;2024-01-16T14:54:45;1;1;
49644;PMS5003;36494;50.730;-1.932;2024-01-16T14:57:10;1;1;
49644;PMS5003;36494;50.730;-1.932;2024-01-16T14:59:36;1;1;
49644;PMS5003;36494;50.730;-1.932;2024-01-16T15:02:01;3;2;
49644;PMS5003;36494;50.730;-1.932;2024-01-16T15:04:26;17;16;
49644;PMS5003;36494;50.730;-1.932;2024-01-16T15:06:51;58;56;
49644;PMS5003;36494;50.730;-1.932;2024-01-16T15:09:17;8;8;
49644;PMS5003;36494;50.730;-1.932;2024-01-16T15:11:46;2;2;
49644;PMS5003;36494;50.730;-1.932;2024-01-16T15:14:10;4;4;
49644;PMS5003;36494;50.730;-1.932;2024-01-16T15:16:34;1;1;
49644;PMS5003;36494;50.730;-1.932;2024-01-16T15:18:59;8;7;
49644;PMS5003;36494;50.730;-1.932;2024-01-16T15:21:24;34;31;
49644;PMS5003;36494;50.730;-1.932;2024-01-16T15:23:51;2;2;
49644;PMS5003;36494;50.730;-1.932;2024-01-16T15:26:15;2;2;
49644;PMS5003;36494;50.730;-1.932;2024-01-16T15:28:40;3;2;
49644;PMS5003;36494;50.730;-1.932;2024-01-16T15:31:06;0;0;
49644;PMS5003;36494;50.730;-1.932;2024-01-16T15:33:32;14;14;
49644;PMS5003;36494;50.730;-1.932;2024-01-16T15:36:00;35;34;
49644;PMS5003;36494;50.730;-1.932;2024-01-16T15:38:22;23;23;
49644;PMS5003;36494;50.730;-1.932;2024-01-16T15:40:47;18;18;
49644;PMS5003;36494;50.730;-1.932;2024-01-16T15:43:12;7;7;
49644;PMS5003;36494;50.730;-1.932;2024-01-16T15:45:38;6;6;
49644;PMS5003;36494;50.730;-1.932;2024-01-16T15:48:05;6;6;
49644;PMS5003;36494;50.730;-1.932;2024-01-16T15:50:29;12;11;
49644;PMS5003;36494;50.730;-1.932;2024-01-16T15:52:54;12;11;
49644;PMS5003;36494;50.730;-1.932;2024-01-16T15:55:20;16;16;
49644;PMS5003;36494;50.730;-1.932;2024-01-16T15:57:46;12;11;
49644;PMS5003;36494;50.730;-1.932;2024-01-16T16:00:12;18;16;
49644;PMS5003;36494;50.730;-1.932;2024-01-16T16:02:36;28;27;
49644;PMS5003;36494;50.730;-1.932;2024-01-16T16:05:01;45;43;
49644;PMS5003;36494;50.730;-1.932;2024-01-16T16:07:26;44;40;